Weather History for Stanley, ND

Change the Weather History Date:

Sunday, March 3, 2013

  Actual Average (KMOT) Record (KMOT)
Temperature  
Mean Temperature 22 °F 22 °F  
Max Temperature 26 °F 30 °F 57 °F (2000)
Min Temperature 19 °F 14 °F -23 °F (1917)
Degree Days  
Heating Degree Days 42 43  
Month to date heating degree days 129  
Since 1 July heating degree days 6705  
Cooling Degree Days 0 0  
Month to date cooling degree days 0  
Year to date cooling degree days 0  
Moisture  
Dew Point 24 °F    
Average Humidity 100    
Maximum Humidity 100    
Minimum Humidity 100    
Precipitation  
Precipitation 0.00 in 0.02 in 0.37 in (1985)
Month to date precipitation 0.05  
Year to date precipitation 0.96  
Sea Level Pressure  
Sea Level Pressure 29.70 in    
Wind  
Wind Speed 10 mph (East)    
Max Wind Speed 21 mph    
Max Gust Speed 31 mph    
Visibility 8 miles    
Events Fog , Rain    
T = Trace of Precipitation, MM = Missing Value Source: NWS Daily Summary

Daily Weather History Graph

Daily Weather History Graph

Search for Another Location

Airport:

Trip Planner

Search our weather history database for the weather conditions in past years. The results will help you decide how hot, cold, wet, or windy it might be!

Date:

Astronomy

Mar. 03, 2013 Rise Set
Actual Time 7:26 AM CST 6:37 PM CST
Civil Twilight 6:55 AM CST 7:08 PM CST
Nautical Twilight 6:19 AM CST 7:44 PM CST
Astronomical Twilight 5:42 AM CST 8:21 PM CST
Moon 12:48 AM CST (3/3) 10:12 AM CST (3/3)
Length of Visible Light 12h 13m
Length of Day
11h 10m
Waning Gibbous, 63% of the Moon is Illuminated
Mar 3
Waning Gibbous
Mar 4
Last Quarter
Mar 11
New
Mar 19
First Quarter
Mar 27
Full

Hourly Weather History & Observations

Time (CST) Temp. Windchill Dew Point Humidity Pressure Visibility Wind Dir Wind Speed Gust Speed Precip Events Conditions
12:15 AM 24.8 °F 20.5 °F 24.8 °F 100% 29.91 in 0.2 mi SE 3.5 mph - N/A Fog Light Freezing Fog
12:35 AM 24.8 °F 19.1 °F 24.8 °F 100% 29.90 in 0.5 mi ESE 4.6 mph - N/A Fog Light Freezing Fog
12:55 AM 23.0 °F 15.8 °F 23.0 °F 100% 29.89 in 3.0 mi ESE 5.8 mph - N/A   Overcast
1:15 AM 23.0 °F 17.0 °F 23.0 °F 100% 29.89 in 5.0 mi SE 4.6 mph - N/A   Mostly Cloudy
1:35 AM 24.8 °F 15.3 °F 24.8 °F 100% 29.87 in 5.0 mi SE 9.2 mph - N/A   Partly Cloudy
1:55 AM 23.0 °F 15.8 °F 23.0 °F 100% 29.88 in 7.0 mi ESE 5.8 mph - N/A   Mostly Cloudy
2:15 AM 23.0 °F 15.8 °F 23.0 °F 100% 29.87 in 7.0 mi SE 5.8 mph - N/A   Mostly Cloudy
2:35 AM 23.0 °F 17.0 °F 23.0 °F 100% 29.86 in 6.0 mi ESE 4.6 mph - N/A   Scattered Clouds
2:55 AM 23.0 °F 18.4 °F 23.0 °F 100% 29.85 in 7.0 mi East 3.5 mph - N/A   Scattered Clouds
3:15 AM 23.0 °F 15.8 °F 23.0 °F 100% 29.84 in 7.0 mi East 5.8 mph - N/A   Scattered Clouds
3:35 AM 23.0 °F 14.7 °F 23.0 °F 100% 29.83 in 8.0 mi East 6.9 mph - N/A   Mostly Cloudy
3:55 AM 21.2 °F 12.6 °F 21.2 °F 100% 29.83 in 3.0 mi East 6.9 mph - N/A   Overcast
4:15 AM 21.2 °F 12.6 °F 21.2 °F 100% 29.82 in 5.0 mi East 6.9 mph - N/A   Overcast
4:35 AM 21.2 °F 10.1 °F 21.2 °F 100% 29.81 in 8.0 mi ESE 10.4 mph - N/A   Mostly Cloudy
4:55 AM 19.4 °F 7.9 °F 19.4 °F 100% 29.80 in 9.0 mi East 10.4 mph - N/A   Mostly Cloudy
5:15 AM 21.2 °F 9.5 °F 21.2 °F 100% 29.79 in 10.0 mi ESE 11.5 mph - N/A   Mostly Cloudy
5:35 AM 21.2 °F 8.3 °F 21.2 °F 100% 29.78 in 10.0 mi ESE 13.8 mph - N/A   Overcast
6:15 AM 21.2 °F 9.5 °F 21.2 °F 100% 29.77 in 9.0 mi ESE 11.5 mph - N/A   Overcast
6:35 AM 21.2 °F 9.5 °F 21.2 °F 100% 29.77 in 9.0 mi ESE 11.5 mph - N/A   Overcast
6:55 AM 23.0 °F 13.1 °F 23.0 °F 100% 29.76 in 10.0 mi ESE 9.2 mph - N/A   Overcast
7:15 AM 23.0 °F 13.1 °F 23.0 °F 100% 29.76 in 7.0 mi ESE 9.2 mph - N/A   Overcast
7:35 AM 23.0 °F 13.9 °F 23.0 °F 100% 29.75 in 6.0 mi ESE 8.1 mph - N/A   Overcast
7:55 AM 23.0 °F 13.1 °F 23.0 °F 100% 29.74 in 6.0 mi ESE 9.2 mph - N/A   Mostly Cloudy
8:15 AM 23.0 °F 13.9 °F 23.0 °F 100% 29.73 in 9.0 mi ESE 8.1 mph - N/A   Scattered Clouds
8:35 AM 23.0 °F 13.1 °F 23.0 °F 100% 29.73 in 10.0 mi ESE 9.2 mph - N/A   Partly Cloudy
8:55 AM 24.8 °F 14.6 °F 24.8 °F 100% 29.72 in 10.0 mi ESE 10.4 mph - N/A   Clear
9:15 AM 24.8 °F 14.6 °F 24.8 °F 100% 29.72 in 10.0 mi ESE 10.4 mph - N/A   Clear
9:35 AM 24.8 °F 13.4 °F 24.8 °F 100% 29.71 in 10.0 mi East 12.7 mph - N/A   Clear
9:55 AM 26.6 °F 15.7 °F 26.6 °F 100% 29.71 in 10.0 mi East 12.7 mph - N/A   Partly Cloudy
10:15 AM 24.8 °F 13.4 °F 24.8 °F 100% 29.71 in 10.0 mi East 12.7 mph - N/A   Partly Cloudy
10:35 AM 24.8 °F 12.9 °F 24.8 °F 100% 29.70 in 5.0 mi East 13.8 mph - N/A   Mostly Cloudy
10:55 AM 24.8 °F 14.0 °F 24.8 °F 100% 29.70 in 4.0 mi ESE 11.5 mph - N/A   Overcast
11:15 AM 24.8 °F 12.4 °F 24.8 °F 100% 29.69 in 4.0 mi ESE 15.0 mph - N/A   Overcast
11:35 AM 24.8 °F 11.9 °F 24.8 °F 100% 29.68 in 5.0 mi ESE 16.1 mph - N/A   Overcast
11:55 AM 26.6 °F 14.3 °F 26.6 °F 100% 29.68 in 7.0 mi ESE 16.1 mph - N/A   Overcast
12:15 PM 26.6 °F 14.3 °F 26.6 °F 100% 29.67 in 6.0 mi ESE 16.1 mph - N/A   Overcast
12:35 PM 26.6 °F 13.8 °F 26.6 °F 100% 29.65 in 6.0 mi ESE 17.3 mph 20.7 mph N/A   Overcast
12:55 PM 26.6 °F 13.4 °F 26.6 °F 100% 29.64 in 5.0 mi ESE 18.4 mph - N/A   Overcast
1:15 PM 26.6 °F 14.3 °F 26.6 °F 100% 29.64 in 5.0 mi ESE 16.1 mph - N/A   Overcast
1:35 PM 26.6 °F 13.8 °F 26.6 °F 100% 29.63 in 9.0 mi ESE 17.3 mph - N/A   Overcast
1:55 PM 26.6 °F 14.7 °F 26.6 °F 100% 29.63 in 7.0 mi ESE 15.0 mph - N/A   Overcast
2:15 PM 26.6 °F 15.2 °F 26.6 °F 100% 29.63 in 7.0 mi East 13.8 mph - N/A   Overcast
2:35 PM 26.6 °F 15.7 °F 26.6 °F 100% 29.63 in 10.0 mi East 12.7 mph - N/A   Overcast
2:55 PM 26.6 °F 14.3 °F 26.6 °F 100% 29.63 in 10.0 mi East 16.1 mph - N/A   Overcast
3:15 PM 26.6 °F 14.7 °F 26.6 °F 100% 29.63 in 10.0 mi East 15.0 mph - N/A   Overcast
3:55 PM 26.6 °F 14.3 °F 26.6 °F 100% 29.62 in 10.0 mi East 16.1 mph - N/A   Overcast
4:15 PM 26.6 °F 16.2 °F 26.6 °F 100% 29.62 in 10.0 mi East 11.5 mph 20.7 mph N/A Rain Light Freezing Rain
4:35 PM 26.6 °F 14.7 °F 26.6 °F 100% 29.62 in 10.0 mi East 15.0 mph - N/A Rain Light Freezing Rain
4:55 PM 26.6 °F 14.7 °F 26.6 °F 100% 29.62 in 10.0 mi East 15.0 mph - N/A   Overcast
5:15 PM 26.6 °F 15.7 °F 26.6 °F 100% 29.61 in 10.0 mi East 12.7 mph - N/A   Overcast
5:35 PM 26.6 °F 14.7 °F 26.6 °F 100% 29.61 in 10.0 mi East 15.0 mph 20.7 mph N/A   Overcast
5:55 PM 24.8 °F 11.9 °F 24.8 °F 100% 29.61 in 10.0 mi East 16.1 mph 25.3 mph N/A   Overcast
6:35 PM 24.8 °F 11.5 °F 24.8 °F 100% 29.61 in 10.0 mi East 17.3 mph 23.0 mph N/A   Overcast
6:55 PM 24.8 °F 12.4 °F 24.8 °F 100% 29.62 in 10.0 mi East 15.0 mph 20.7 mph N/A   Overcast
7:15 PM 24.8 °F 12.4 °F 24.8 °F 100% 29.62 in 10.0 mi East 15.0 mph 20.7 mph N/A   Overcast
7:35 PM 24.8 °F 12.9 °F 24.8 °F 100% 29.62 in 10.0 mi East 13.8 mph 20.7 mph N/A   Overcast
7:55 PM 24.8 °F 11.5 °F 24.8 °F 100% 29.61 in 10.0 mi East 17.3 mph 24.2 mph N/A   Overcast
8:15 PM 24.8 °F 11.5 °F 24.8 °F 100% 29.62 in 10.0 mi East 17.3 mph 20.7 mph N/A   Overcast
8:35 PM 24.8 °F 10.7 °F 24.8 °F 100% 29.61 in 10.0 mi East 19.6 mph 25.3 mph N/A   Overcast
8:55 PM 24.8 °F 11.9 °F 24.8 °F 100% 29.62 in 10.0 mi East 16.1 mph 19.6 mph N/A   Overcast
9:15 PM 23.0 °F 9.2 °F 23.0 °F 100% 29.60 in 10.0 mi East 17.3 mph 21.9 mph N/A   Overcast
9:35 PM 23.0 °F 10.6 °F 23.0 °F 100% 29.62 in 10.0 mi East 13.8 mph 21.9 mph N/A   Overcast
9:55 PM 23.0 °F 10.1 °F 23.0 °F 100% 29.61 in 8.0 mi East 15.0 mph 23.0 mph N/A   Overcast
10:15 PM 23.0 °F 8.0 °F 23.0 °F 100% 29.60 in 8.0 mi East 20.7 mph 25.3 mph N/A   Overcast
10:35 PM 23.0 °F 9.6 °F 23.0 °F 100% 29.60 in 10.0 mi East 16.1 mph 26.5 mph N/A   Overcast
10:55 PM 23.0 °F 10.1 °F 23.0 °F 100% 29.60 in 4.0 mi East 15.0 mph 24.2 mph N/A   Overcast
11:15 PM 23.0 °F 8.0 °F 23.0 °F 100% 29.59 in 3.0 mi East 20.7 mph 31.1 mph N/A   Overcast
11:35 PM 23.0 °F 8.7 °F 23.0 °F 100% 29.59 in 3.0 mi East 18.4 mph 26.5 mph N/A   Overcast
11:55 PM 23.0 °F 10.1 °F 23.0 °F 100% 29.60 in 3.0 mi East 15.0 mph 26.5 mph N/A   Overcast